Time;durP1;ratioP1;P1;durP2;ratioP2;P2;SDS_P1;SDS_P2;PMS_P1;PMS_P2;Temp;Humidity;BMP_temperature;BMP_pressure;BME280_temperature;BME280_humidity;BME280_pressure;Samples;Min_cycle;Max_cycle;Signal;HPM_P1;HPM_P2
2021/01/03 00:01:11;;;;;;;39.30;18.77;;;;;;;0.70;94.66;100428.72;3480854;28;20041;-48
2021/01/03 00:02:55;;;;;;;42.40;18.52;;;;;;;0.72;94.37;100430.59;3481748;28;20045;-47
2021/01/03 00:04:42;;;;;;;40.72;18.38;;;;;;;0.73;94.51;100436.59;3483862;28;20052;-48
2021/01/03 00:06:24;;;;;;;40.88;19.35;;;;;;;0.71;94.45;100433.06;3481279;28;20506;-48
2021/01/03 00:08:07;;;;;;;38.53;18.27;;;;;;;0.68;93.80;100441.38;3481390;28;20053;-48
2021/01/03 00:09:49;;;;;;;40.38;18.02;;;;;;;0.65;93.59;100438.66;3483301;28;20402;-48
2021/01/03 00:11:30;;;;;;;36.47;17.40;;;;;;;0.61;93.77;100435.00;3481881;28;20288;-47
2021/01/03 00:13:12;;;;;;;35.42;18.20;;;;;;;0.59;93.43;100430.56;3483056;28;20464;-47
2021/01/03 00:14:53;;;;;;;36.35;18.60;;;;;;;0.56;93.75;100438.94;3481792;28;20564;-47
2021/01/03 00:16:35;;;;;;;40.42;17.67;;;;;;;0.55;93.55;100439.69;3481432;28;20058;-46
2021/01/03 00:18:20;;;;;;;39.25;18.48;;;;;;;0.54;93.75;100444.69;3483483;28;20597;-48
2021/01/03 00:20:04;;;;;;;39.67;18.23;;;;;;;0.54;93.39;100442.16;3481392;28;20459;-46
2021/01/03 00:21:46;;;;;;;37.03;16.88;;;;;;;0.54;93.40;100439.59;3481264;28;20052;-45
2021/01/03 00:23:28;;;;;;;31.17;16.40;;;;;;;0.53;93.41;100445.50;3483116;28;20055;-46
2021/01/03 00:25:11;;;;;;;31.55;15.73;;;;;;;0.53;93.35;100440.41;3481395;28;20052;-46
2021/01/03 00:26:53;;;;;;;34.20;16.17;;;;;;;0.52;93.16;100441.16;3481199;28;20102;-48
2021/01/03 00:28:35;;;;;;;32.55;16.15;;;;;;;0.51;93.07;100442.84;3483075;28;20057;-48
2021/01/03 00:30:19;;;;;;;33.28;16.75;;;;;;;0.50;93.28;100441.06;3480789;28;20422;-48
2021/01/03 00:32:00;;;;;;;;;;;;;;;0.48;93.32;100441.75;3481910;28;20049;-47
2021/01/03 00:33:42;;;;;;;33.08;15.43;;;;;;;0.46;93.35;100440.78;3482858;28;19928;-48
2021/01/03 00:35:28;;;;;;;35.90;17.25;;;;;;;0.45;93.09;100436.44;3481006;28;20045;-48
2021/01/03 00:37:10;;;;;;;30.35;15.57;;;;;;;0.42;93.28;100437.13;3482033;28;20045;-46
2021/01/03 00:38:52;;;;;;;32.83;16.65;;;;;;;0.41;92.79;100437.91;3482536;28;20415;-47
2021/01/03 00:40:36;;;;;;;37.33;17.30;;;;;;;0.39;93.17;100435.25;3481152;28;20098;-47
2021/01/03 00:42:18;;;;;;;30.17;15.35;;;;;;;0.38;93.15;100433.50;3481930;28;20147;-46
2021/01/03 00:43:59;;;;;;;39.63;17.30;;;;;;;0.39;93.25;100434.38;3480179;28;20064;-46
2021/01/03 00:45:42;;;;;;;35.38;17.25;;;;;;;0.39;93.08;100431.81;3480683;28;20498;-45
2021/01/03 00:47:23;;;;;;;36.13;18.70;;;;;;;0.39;93.27;100424.16;3482883;28;20533;-46
2021/01/03 00:49:05;;;;;;;42.70;21.02;;;;;;;0.37;92.95;100426.63;3481607;28;20041;-47
2021/01/03 00:50:46;;;;;;;42.78;19.45;;;;;;;0.36;92.95;100421.41;3481136;28;20060;-46
2021/01/03 00:52:28;;;;;;;38.55;18.70;;;;;;;0.35;92.95;100428.19;3482595;28;20095;-46
2021/01/03 00:54:10;;;;;;;38.30;19.05;;;;;;;0.35;92.93;100424.75;3480821;28;20457;-48
2021/01/03 00:55:52;;;;;;;36.03;18.08;;;;;;;0.35;93.05;100423.09;3482391;28;20139;-47
2021/01/03 00:57:33;;;;;;;37.22;17.27;;;;;;;0.36;92.96;100424.84;3480893;28;20138;-48
2021/01/03 00:59:15;;;;;;;34.40;17.73;;;;;;;0.34;93.02;100422.97;3481201;28;20079;-47
2021/01/03 01:00:56;;;;;;;37.42;18.77;;;;;;;0.33;93.34;100429.75;3482956;28;20103;-48
2021/01/03 01:02:38;;;;;;;39.20;18.15;;;;;;;0.35;93.05;100434.97;3481255;28;20056;-48
2021/01/03 01:04:19;;;;;;;37.85;17.80;;;;;;;0.35;93.33;100430.75;3480817;28;20076;-49
2021/01/03 01:06:01;;;;;;;35.47;17.55;;;;;;;0.33;93.22;100434.88;3482663;28;20410;-46
2021/01/03 01:07:43;;;;;;;34.95;17.05;;;;;;;0.34;92.93;100428.09;3480462;28;20068;-47
2021/01/03 01:09:25;;;;;;;33.45;16.30;;;;;;;0.32;93.14;100430.53;3482201;28;20084;-46
2021/01/03 01:11:07;;;;;;;34.90;18.40;;;;;;;0.31;92.82;100427.88;3481059;28;20445;-48
2021/01/03 01:12:48;;;;;;;35.03;17.50;;;;;;;0.31;93.27;100422.75;3480573;28;20563;-48
2021/01/03 01:14:30;;;;;;;35.38;18.77;;;;;;;0.32;93.28;100416.91;3483128;28;20079;-47
2021/01/03 01:16:12;;;;;;;36.25;17.30;;;;;;;0.30;92.73;100418.47;3482198;28;20057;-47
2021/01/03 01:17:55;;;;;;;41.03;18.92;;;;;;;0.28;92.95;100418.34;3480881;28;20088;-46
2021/01/03 01:19:36;;;;;;;39.63;18.92;;;;;;;0.29;93.01;100421.78;3482767;28;20075;-48
2021/01/03 01:21:18;;;;;;;39.88;19.33;;;;;;;0.28;92.96;100417.44;3480311;28;20409;-48
2021/01/03 01:23:00;;;;;;;36.92;17.80;;;;;;;0.29;93.05;100417.56;3481947;28;20060;-48
2021/01/03 01:24:42;;;;;;;33.67;17.90;;;;;;;0.28;93.10;100418.34;3482344;28;20060;-46
2021/01/03 01:26:24;;;;;;;33.88;17.35;;;;;;;0.28;93.12;100425.09;3480354;28;20106;-46
2021/01/03 01:28:05;;;;;;;41.67;19.10;;;;;;;0.27;93.18;100415.69;3482409;28;20395;-45
2021/01/03 01:29:47;;;;;;;40.33;18.73;;;;;;;0.26;93.29;100419.94;3480549;28;20434;-46
2021/01/03 01:31:28;;;;;;;45.42;21.38;;;;;;;0.26;92.83;100417.38;3480788;28;20406;-47
2021/01/03 01:33:10;;;;;;;42.75;19.33;;;;;;;0.24;93.02;100418.91;3469584;28;20053;-46
2021/01/03 01:34:51;;;;;;;39.75;20.58;;;;;;;0.22;92.88;100417.94;3476868;28;20049;-46
2021/01/03 01:36:32;;;;;;;39.88;19.52;;;;;;;0.19;92.90;100423.72;3481650;28;20053;-48
2021/01/03 01:38:15;;;;;;;42.22;20.08;;;;;;;0.18;92.96;100419.41;3481440;28;20060;-48
2021/01/03 01:39:57;;;;;;;45.90;20.77;;;;;;;0.18;93.28;100416.84;3480308;28;20045;-48
2021/01/03 01:41:39;;;;;;;43.28;20.77;;;;;;;0.17;93.11;100422.75;3482844;28;20049;-46
2021/01/03 01:43:21;;;;;;;40.80;20.10;;;;;;;0.15;92.95;100423.41;3479055;28;20526;-47
2021/01/03 01:45:06;;;;;;;46.22;20.20;;;;;;;0.11;92.93;100429.97;3480835;28;20045;-48
2021/01/03 01:46:52;;;;;;;44.13;20.73;;;;;;;0.09;93.61;100428.13;3482669;28;20110;-48
2021/01/03 01:48:36;;;;;;;47.20;20.83;;;;;;;0.07;93.70;100433.09;3480598;28;20048;-49
2021/01/03 01:50:22;;;;;;;39.45;18.75;;;;;;;0.04;93.73;100430.34;3480806;28;20472;-46
2021/01/03 01:52:05;;;;;;;45.08;20.20;;;;;;;0.03;93.75;100433.66;3482863;28;20060;-46
2021/01/03 01:53:55;;;;;;;41.15;19.05;;;;;;;0.01;93.58;100431.03;3479779;28;20060;-45
2021/01/03 01:55:41;;;;;;;38.00;19.35;;;;;;;-0.01;93.63;100432.56;3482091;28;20048;-47
2021/01/03 01:57:29;;;;;;;42.40;19.48;;;;;;;-0.01;94.01;100436.78;3481990;28;20258;-47
2021/01/03 01:59:16;;;;;;;40.42;19.13;;;;;;;-0.02;94.13;100437.59;3480359;28;20056;-45
2021/01/03 02:01:04;;;;;;;46.10;20.35;;;;;;;-0.03;94.01;100440.91;3482423;28;20061;-47
2021/01/03 02:02:54;;;;;;;39.00;19.30;;;;;;;-0.03;93.95;100433.25;3484904;28;20057;-48
2021/01/03 02:04:40;;;;;;;40.22;17.50;;;;;;;-0.02;94.28;100438.47;3482715;28;20048;-47
2021/01/03 02:06:27;;;;;;;45.85;20.88;;;;;;;-0.01;94.23;100450.41;3482884;28;20049;-47
2021/01/03 02:08:17;;;;;;;44.67;19.55;;;;;;;0.03;94.29;100446.41;3484548;28;20106;-48
2021/01/03 02:10:09;;;;;;;47.50;20.42;;;;;;;0.07;94.61;100447.53;3482410;28;19925;-47
2021/01/03 02:12:05;;;;;;;49.40;21.20;;;;;;;0.12;94.78;100441.97;3482570;28;20131;-47
2021/01/03 02:13:49;;;;;;;53.58;21.50;;;;;;;0.18;95.22;100450.00;3484801;28;20083;-47
2021/01/03 02:15:31;;;;;;;;;;;;;;;0.23;95.07;100456.31;3483095;28;20044;-47
2021/01/03 02:17:12;;;;;;;47.97;19.33;;;;;;;0.29;95.16;100449.84;3482415;28;19997;-46
2021/01/03 02:18:54;;;;;;;48.40;21.52;;;;;;;0.34;95.58;100446.81;3484670;28;20520;-47
2021/01/03 02:20:46;;;;;;;65.35;23.25;;;;;;;0.39;95.45;100453.13;3482444;28;20045;-47
2021/01/03 02:22:39;;;;;;;63.72;23.33;;;;;;;0.43;95.50;100456.75;3483454;28;20541;-48
2021/01/03 02:24:27;;;;;;;54.10;21.90;;;;;;;0.43;95.55;100457.63;3483599;28;20576;-47
2021/01/03 02:26:11;;;;;;;51.17;20.77;;;;;;;0.44;95.23;100450.88;3482721;28;20090;-47
2021/01/03 02:28:07;;;;;;;60.95;23.83;;;;;;;0.43;95.23;100452.53;3482979;28;20461;-47
2021/01/03 02:29:52;;;;;;;57.13;22.08;;;;;;;0.45;95.66;100449.22;3484301;28;20107;-48
2021/01/03 02:31:36;;;;;;;59.78;23.45;;;;;;;0.45;95.42;100441.56;3482679;28;20358;-47
2021/01/03 02:33:23;;;;;;;58.00;23.33;;;;;;;0.43;95.64;100447.44;3483160;28;20049;-46
2021/01/03 02:35:08;;;;;;;61.65;24.15;;;;;;;0.43;95.76;100444.00;3484393;28;20033;-46
2021/01/03 02:36:53;;;;;;;60.03;22.90;;;;;;;0.40;95.57;100442.13;3482200;28;20056;-46
2021/01/03 02:38:42;;;;;;;74.70;22.92;;;;;;;0.40;95.43;100447.25;3484680;28;20103;-46
2021/01/03 02:40:25;;;;;;;57.38;21.95;;;;;;;0.39;95.57;100449.69;3483168;28;20605;-47
2021/01/03 02:42:14;;;;;;;65.88;24.95;;;;;;;0.39;95.74;100457.34;3480570;28;20049;-46
2021/01/03 02:43:56;;;;;;;61.55;24.92;;;;;;;0.38;95.94;100453.00;3484248;28;20045;-47
2021/01/03 02:45:38;;;;;;;68.30;26.05;;;;;;;0.37;95.80;100447.03;3482869;28;20295;-46
2021/01/03 02:47:23;;;;;;;65.80;27.33;;;;;;;0.36;95.82;100454.59;3482443;28;20072;-47
2021/01/03 02:49:05;;;;;;;74.85;26.00;;;;;;;0.34;95.79;100449.38;3484873;28;20052;-47
2021/01/03 02:50:48;;;;;;;77.13;25.92;;;;;;;0.33;95.80;100446.72;3482521;28;20079;-47
2021/01/03 02:52:31;;;;;;;57.20;23.95;;;;;;;0.33;95.84;100451.81;3482247;28;20050;-46
2021/01/03 02:54:13;;;;;;;97.07;25.95;;;;;;;0.32;96.10;100455.16;3471004;28;20061;-46
2021/01/03 02:55:54;;;;;;;62.00;22.67;;;;;;;0.31;95.93;100450.84;3480174;28;20045;-47
2021/01/03 02:57:37;;;;;;;72.88;25.08;;;;;;;0.29;95.94;100448.19;3482600;28;20163;-46
2021/01/03 02:59:19;;;;;;;99.10;28.35;;;;;;;0.29;95.97;100455.84;3483350;28;20115;-46
2021/01/03 03:01:01;;;;;;;81.18;25.45;;;;;;;0.28;96.26;100456.63;3482201;28;20052;-47
2021/01/03 03:02:42;;;;;;;69.68;23.67;;;;;;;0.27;96.45;100454.84;3484336;28;20563;-46
2021/01/03 03:04:25;;;;;;;160.93;28.80;;;;;;;0.26;96.25;100453.09;3482450;28;20493;-47
2021/01/03 03:06:07;;;;;;;87.25;26.08;;;;;;;0.26;96.36;100455.66;3482355;28;20044;-46
2021/01/03 03:07:49;;;;;;;80.20;24.42;;;;;;;0.26;96.47;100453.09;3484159;28;20064;-48
2021/01/03 03:09:31;;;;;;;83.97;25.83;;;;;;;0.25;96.50;100458.97;3481971;28;20159;-47
2021/01/03 03:11:12;;;;;;;82.38;23.75;;;;;;;0.26;96.60;100459.84;3482037;28;20077;-47
2021/01/03 03:12:56;;;;;;;93.90;25.52;;;;;;;0.25;96.58;100458.09;3482976;28;20049;-46
2021/01/03 03:14:38;;;;;;;128.07;27.52;;;;;;;0.23;96.81;100456.31;3482417;28;20106;-46
2021/01/03 03:16:20;;;;;;;84.72;21.88;;;;;;;0.23;96.79;100455.44;3483401;28;20128;-46
2021/01/03 03:18:02;;;;;;;62.92;22.70;;;;;;;0.23;96.89;100451.22;3483125;28;20052;-47
2021/01/03 03:19:45;;;;;;;93.60;25.63;;;;;;;0.23;96.77;100452.88;3482872;28;20049;-48
2021/01/03 03:21:27;;;;;;;98.90;23.85;;;;;;;0.23;96.79;100450.34;3484602;28;20037;-48
2021/01/03 03:23:08;;;;;;;134.32;29.70;;;;;;;0.24;96.77;100464.84;3481821;28;20052;-48
2021/01/03 03:24:50;;;;;;;66.93;22.25;;;;;;;0.22;96.83;100459.66;3482313;28;20060;-46
2021/01/03 03:26:32;;;;;;;73.68;22.33;;;;;;;0.23;96.80;100458.00;3484559;28;20053;-46
2021/01/03 03:28:15;;;;;;;80.43;22.40;;;;;;;0.22;96.98;100449.47;3481825;28;20053;-46
2021/01/03 03:29:56;;;;;;;68.43;23.00;;;;;;;0.22;96.79;100452.00;3482777;28;20421;-49
2021/01/03 03:31:38;;;;;;;88.22;25.52;;;;;;;0.22;96.91;100449.47;3482968;28;20106;-48
2021/01/03 03:33:21;;;;;;;69.32;22.25;;;;;;;0.22;97.15;100449.47;3481586;28;20131;-47
2021/01/03 03:35:03;;;;;;;119.05;25.27;;;;;;;0.22;96.95;100449.47;3483950;28;20056;-48
2021/01/03 03:36:46;;;;;;;74.10;23.13;;;;;;;0.22;96.96;100453.66;3481320;28;20106;-48
2021/01/03 03:38:27;;;;;;;92.28;23.98;;;;;;;0.22;97.28;100457.09;3482314;28;20146;-47
2021/01/03 03:40:10;;;;;;;58.85;21.13;;;;;;;0.23;97.18;100455.44;3484248;28;20051;-46
2021/01/03 03:41:54;;;;;;;98.50;22.33;;;;;;;0.22;97.22;100453.66;3480427;28;20053;-49
2021/01/03 03:43:36;;;;;;;109.30;22.90;;;;;;;0.21;97.00;100457.88;3482135;28;20498;-49
2021/01/03 03:45:19;;;;;;;88.00;21.27;;;;;;;0.21;96.95;100460.44;3483378;28;20052;-49
2021/01/03 03:47:03;;;;;;;85.28;23.02;;;;;;;0.18;97.30;100454.22;3481413;28;20144;-48
2021/01/03 03:48:45;;;;;;;99.90;22.73;;;;;;;0.18;97.00;100465.31;3483962;28;20053;-49
2021/01/03 03:50:27;;;;;;;82.47;20.40;;;;;;;0.16;97.27;100454.13;3481994;28;20044;-48
2021/01/03 03:52:09;;;;;;;63.33;17.83;;;;;;;0.15;97.01;100451.47;3481421;28;20049;-45
2021/01/03 03:53:51;;;;;;;66.93;21.10;;;;;;;0.11;97.37;100447.81;3483752;28;20049;-49
2021/01/03 03:55:32;;;;;;;63.50;19.08;;;;;;;0.11;97.32;100455.47;3481621;28;20494;-46
2021/01/03 03:57:14;;;;;;;56.38;18.67;;;;;;;0.11;97.43;100460.56;3481826;28;20080;-48
2021/01/03 03:58:56;;;;;;;70.22;19.83;;;;;;;0.11;97.37;100455.47;3484237;28;20056;-49
2021/01/03 04:00:38;;;;;;;72.05;19.05;;;;;;;0.12;97.12;100462.38;3481304;28;20052;-50
2021/01/03 04:02:21;;;;;;;70.85;19.05;;;;;;;0.12;97.39;100459.81;3481742;28;20045;-49
2021/01/03 04:04:02;;;;;;;72.70;21.05;;;;;;;0.14;97.66;100462.47;3483563;28;20083;-48
2021/01/03 04:05:45;;;;;;;83.75;22.83;;;;;;;0.14;97.72;100463.34;3481396;28;20053;-46
2021/01/03 04:07:27;;;;;;;53.58;18.58;;;;;;;0.14;97.53;100460.78;3481454;28;20464;-46
2021/01/03 04:09:10;;;;;;;112.55;20.77;;;;;;;0.14;97.57;100460.78;3483967;28;20498;-49
2021/01/03 04:10:52;;;;;;;71.60;18.98;;;;;;;0.15;97.44;100462.53;3481478;28;20049;-46
2021/01/03 04:12:34;;;;;;;92.95;21.83;;;;;;;0.18;97.82;100467.00;3483109;28;20071;-46
2021/01/03 04:14:19;;;;;;;148.82;28.35;;;;;;;0.19;97.80;100472.19;3482327;28;20056;-49
2021/01/03 04:16:07;;;;;;;97.28;24.17;;;;;;;0.19;97.67;100463.66;3481317;28;20494;-48
2021/01/03 04:17:49;;;;;;;110.20;26.88;;;;;;;0.19;97.55;100467.09;3483566;28;20064;-48
2021/01/03 04:19:31;;;;;;;94.07;21.85;;;;;;;0.19;97.94;100463.66;3470362;28;20060;-50
2021/01/03 04:21:14;;;;;;;142.57;26.92;;;;;;;0.20;97.79;100468.84;3476700;28;20052;-47
2021/01/03 04:22:58;;;;;;;125.38;27.13;;;;;;;0.21;97.81;100475.75;3483547;28;20060;-46
2021/01/03 04:24:40;;;;;;;125.65;27.05;;;;;;;0.22;97.78;100474.06;3482455;28;20056;-50
2021/01/03 04:26:22;;;;;;;79.53;21.73;;;;;;;0.21;97.85;100462.09;3480757;28;20446;-50
2021/01/03 04:28:05;;;;;;;60.40;18.75;;;;;;;0.19;97.84;100462.00;3484377;28;20064;-49
2021/01/03 04:29:48;;;;;;;60.80;19.42;;;;;;;0.21;97.54;100472.31;3472414;28;20465;-45
2021/01/03 04:31:29;;;;;;;82.10;20.95;;;;;;;0.20;97.92;100467.97;3475799;28;20433;-46
2021/01/03 04:33:11;;;;;;;65.07;19.25;;;;;;;0.19;97.58;100464.56;3483475;28;20422;-49
2021/01/03 04:34:53;;;;;;;60.60;19.65;;;;;;;0.21;97.76;100468.09;3482208;28;20441;-50
2021/01/03 04:36:35;;;;;;;63.65;20.00;;;;;;;0.20;97.94;100471.41;3481722;28;20045;-51
2021/01/03 04:38:17;;;;;;;83.88;20.70;;;;;;;0.22;97.80;100476.63;3483208;28;20432;-48
2021/01/03 04:39:59;;;;;;;96.68;22.60;;;;;;;0.22;97.87;100474.06;3481871;28;20052;-46
2021/01/03 04:41:42;;;;;;;108.93;23.80;;;;;;;0.22;98.01;100474.06;3481317;28;20052;-46
2021/01/03 04:43:25;;;;;;;96.63;22.48;;;;;;;0.21;97.63;100467.22;3481416;28;20064;-46
2021/01/03 04:45:22;;;;;;;116.13;23.70;;;;;;;0.21;97.85;100473.19;3481277;28;20131;-46
2021/01/03 04:47:07;;;;;;;96.85;23.92;;;;;;;0.21;97.87;100470.63;3481512;28;20045;-47
2021/01/03 04:48:58;;;;;;;69.35;20.10;;;;;;;0.21;97.76;100472.31;3482845;28;20049;-46
2021/01/03 04:50:56;;;;;;;86.78;21.48;;;;;;;0.21;97.88;100467.22;3481045;28;20106;-48
2021/01/03 04:53:04;;;;;;;101.78;21.05;;;;;;;0.21;98.16;100470.63;3481268;28;20056;-47
2021/01/03 04:54:51;;;;;;;63.30;18.80;;;;;;;0.20;97.80;100476.50;3469317;28;20472;-49
2021/01/03 04:56:45;;;;;;;62.97;17.65;;;;;;;0.21;97.96;100472.31;3481078;28;20181;-49
2021/01/03 04:58:35;;;;;;;58.47;17.40;;;;;;;0.20;98.00;100468.84;3480975;28;20539;-47
2021/01/03 05:00:19;;;;;;;59.92;18.35;;;;;;;0.20;97.95;100468.84;3482831;28;20143;-46
2021/01/03 05:02:44;;;;;;;84.27;20.27;;;;;;;0.20;98.02;100473.06;3481447;28;20144;-46
2021/01/03 05:04:49;;;;;;;60.72;17.58;;;;;;;0.20;97.96;100468.84;3469542;28;20343;-49
2021/01/03 05:06:31;;;;;;;58.35;18.38;;;;;;;0.21;97.86;100464.66;3480812;28;20106;-49
2021/01/03 05:08:36;;;;;;;70.85;17.92;;;;;;;0.22;98.11;100471.50;3483324;28;20081;-46
2021/01/03 05:10:23;;;;;;;86.47;19.10;;;;;;;0.22;97.94;100474.06;3481810;28;20139;-51
2021/01/03 05:12:11;;;;;;;62.78;16.75;;;;;;;0.23;98.07;100484.38;3480544;28;20057;-50
2021/01/03 05:14:02;;;;;;;88.85;19.45;;;;;;;0.22;98.04;100489.38;3482787;28;20458;-50
2021/01/03 05:15:46;;;;;;;83.65;18.08;;;;;;;0.23;98.07;100488.59;3482183;28;20078;-46
2021/01/03 05:17:27;;;;;;;;;;;;;;;0.23;97.98;100486.06;3481856;28;20053;-45
2021/01/03 05:19:09;;;;;;;53.25;15.13;;;;;;;0.23;97.86;100491.16;3480583;28;20406;-46
2021/01/03 05:20:55;;;;;;;73.65;17.75;;;;;;;0.23;98.09;100497.13;3482865;28;20567;-50
2021/01/03 05:22:39;;;;;;;55.92;16.30;;;;;;;0.25;98.10;100488.72;3480325;28;20060;-50
2021/01/03 05:24:24;;;;;;;64.60;16.13;;;;;;;0.24;98.19;100480.16;3482180;28;20053;-48
2021/01/03 05:26:24;;;;;;;68.93;16.15;;;;;;;0.23;97.91;100491.16;3481336;28;20057;-51
2021/01/03 05:28:11;;;;;;;55.33;14.77;;;;;;;0.24;98.17;100495.47;3480892;28;20049;-47
2021/01/03 05:29:52;;;;;;;85.88;18.48;;;;;;;0.25;97.98;100504.03;3481605;28;20045;-49
2021/01/03 05:31:35;;;;;;;56.75;17.15;;;;;;;0.24;98.29;100503.13;3483193;28;20049;-47
2021/01/03 05:33:24;;;;;;;54.20;15.52;;;;;;;0.24;98.19;100498.00;3481203;28;20071;-48
2021/01/03 05:35:17;;;;;;;66.13;17.20;;;;;;;0.26;97.94;100496.47;3481165;28;20059;-47
2021/01/03 05:37:04;;;;;;;60.05;16.90;;;;;;;0.26;97.93;100496.47;3481870;28;20457;-47
2021/01/03 05:38:46;;;;;;;88.72;16.33;;;;;;;0.27;98.09;100500.78;3480091;28;20041;-46
2021/01/03 05:40:34;;;;;;;74.82;15.82;;;;;;;0.27;98.22;100489.69;3482106;28;20060;-46
2021/01/03 05:42:34;;;;;;;56.47;15.95;;;;;;;0.27;98.01;100498.22;3479407;28;20059;-50
2021/01/03 05:44:23;;;;;;;73.15;17.08;;;;;;;0.29;98.29;100493.22;3480380;28;20048;-46
2021/01/03 05:46:11;;;;;;;56.58;15.30;;;;;;;0.29;98.23;100494.09;3480885;28;20477;-47
2021/01/03 05:47:58;;;;;;;58.47;15.73;;;;;;;0.29;97.94;100500.88;3482085;28;20057;-46
2021/01/03 05:49:40;;;;;;;68.85;16.42;;;;;;;0.30;98.11;100490.78;3479952;28;20091;-46
2021/01/03 05:51:38;;;;;;;44.92;14.43;;;;;;;0.30;98.09;100495.00;3482634;28;20060;-46
2021/01/03 05:53:24;;;;;;;48.58;14.30;;;;;;;0.30;98.20;100495.88;3482330;28;20111;-47
2021/01/03 05:55:07;;;;;;;70.28;14.77;;;;;;;0.32;98.05;100496.00;3480315;28;20052;-49
2021/01/03 05:56:49;;;;;;;52.33;14.00;;;;;;;0.32;98.24;100499.44;3482030;28;20084;-46
2021/01/03 05:58:36;;;;;;;58.38;14.98;;;;;;;0.33;98.30;100502.84;3481351;28;20483;-47
2021/01/03 06:00:24;;;;;;;47.30;14.52;;;;;;;0.34;98.35;100500.41;3479809;28;20490;-46
2021/01/03 06:02:10;;;;;;;45.88;13.25;;;;;;;0.34;98.06;100502.97;3482055;28;20076;-46
2021/01/03 06:04:06;;;;;;;54.67;16.40;;;;;;;0.35;98.32;100494.53;3481313;28;20057;-47
2021/01/03 06:05:51;;;;;;;51.75;14.98;;;;;;;0.35;98.07;100499.63;3480517;28;20346;-46
2021/01/03 06:07:33;;;;;;;43.25;14.32;;;;;;;0.35;98.12;100496.22;3482194;28;20060;-46
2021/01/03 06:09:17;;;;;;;76.60;15.52;;;;;;;0.36;97.99;100501.38;3480383;28;20049;-46
2021/01/03 06:11:11;;;;;;;54.50;15.63;;;;;;;0.36;98.17;100498.84;3480228;28;20050;-47
2021/01/03 06:12:57;;;;;;;42.65;14.55;;;;;;;0.36;98.00;100500.50;3482241;28;20056;-48
2021/01/03 06:14:42;;;;;;;79.10;17.15;;;;;;;0.35;98.36;100494.53;3481238;28;20049;-49
2021/01/03 06:16:26;;;;;;;46.47;15.07;;;;;;;0.37;98.02;100499.75;3479963;28;20102;-48
2021/01/03 06:18:14;;;;;;;46.70;14.32;;;;;;;0.38;98.09;100507.50;3482257;28;20449;-48
2021/01/03 06:20:03;;;;;;;45.92;14.38;;;;;;;0.38;98.39;100504.97;3480353;28;20087;-48
2021/01/03 06:21:45;;;;;;;52.28;14.15;;;;;;;0.39;97.98;100500.72;3480131;28;20472;-49
2021/01/03 06:23:33;;;;;;;48.08;14.48;;;;;;;0.40;97.98;100498.28;3482868;28;20056;-47
2021/01/03 06:25:25;;;;;;;44.50;13.15;;;;;;;0.40;98.18;100499.94;3479806;28;20049;-47
2021/01/03 06:27:14;;;;;;;49.95;14.40;;;;;;;0.41;98.09;100501.72;3479943;28;20545;-47
2021/01/03 06:28:56;;;;;;;49.45;14.82;;;;;;;0.40;98.13;100502.47;3482036;28;20506;-46
2021/01/03 06:30:40;;;;;;;54.28;15.10;;;;;;;0.40;98.44;100508.50;3480106;28;20472;-46
2021/01/03 06:32:36;;;;;;;;;;;;;;;0.41;98.38;100497.50;3489465;28;20054;-46
2021/01/03 06:34:27;;;;;;;39.63;12.95;;;;;;;0.42;98.38;100504.38;3482824;28;20001;-47
2021/01/03 06:36:15;;;;;;;50.92;14.18;;;;;;;0.43;98.20;100498.47;3479128;28;20053;-47
2021/01/03 06:38:05;;;;;;;37.92;12.65;;;;;;;0.46;98.11;100505.47;3479667;28;20409;-46
2021/01/03 06:39:53;;;;;;;49.45;14.75;;;;;;;0.47;98.22;100507.25;3482720;28;20060;-46
2021/01/03 06:41:48;;;;;;;53.38;15.23;;;;;;;0.48;98.31;100503.91;3479785;28;20053;-46
2021/01/03 06:43:55;;;;;;;43.55;13.15;;;;;;;0.51;98.43;100505.78;3476077;28;20465;-47
2021/01/03 06:46:13;;;;;;;41.35;13.57;;;;;;;0.52;98.20;100503.31;3479937;28;20045;-47
2021/01/03 06:48:24;;;;;;;44.10;13.15;;;;;;;0.53;98.46;100506.78;3483228;28;20060;-46
2021/01/03 06:50:44;;;;;;;35.75;12.40;;;;;;;0.56;98.30;100509.50;3470749;28;20080;-46
2021/01/03 06:53:06;;;;;;;43.00;12.38;;;;;;;0.56;98.17;100501.84;3440138;28;20091;-47
2021/01/03 06:55:09;;;;;;;51.35;15.10;;;;;;;0.60;98.21;100498.75;3481772;28;20099;-48
2021/01/03 06:57:11;;;;;;;49.45;15.23;;;;;;;0.61;98.29;100505.59;3482100;28;20045;-46
2021/01/03 06:59:34;;;;;;;49.67;15.10;;;;;;;0.62;98.39;100507.38;3482434;28;20052;-47
2021/01/03 07:01:21;;;;;;;62.40;15.80;;;;;;;0.62;98.32;100504.81;3428330;28;20105;-47
2021/01/03 07:03:07;;;;;;;50.13;15.30;;;;;;;0.63;98.32;100501.50;3456549;28;20357;-47
2021/01/03 07:04:51;;;;;;;56.58;16.40;;;;;;;0.64;98.40;100498.16;3482042;28;20041;-47
2021/01/03 07:06:35;;;;;;;62.55;14.98;;;;;;;0.65;98.40;100501.56;3484078;28;20056;-47
2021/01/03 07:08:19;;;;;;;56.58;16.30;;;;;;;0.67;98.40;100500.03;3481596;28;20049;-47
2021/01/03 07:10:03;;;;;;;49.35;16.00;;;;;;;0.68;98.18;100509.44;3481892;28;20049;-48
2021/01/03 07:11:48;;;;;;;74.97;18.48;;;;;;;0.70;98.45;100500.22;3483922;28;20049;-49
2021/01/03 07:13:41;;;;;;;62.28;16.38;;;;;;;0.73;98.29;100510.66;3481806;28;20060;-47
2021/01/03 07:15:39;;;;;;;65.35;18.42;;;;;;;0.72;98.21;100497.00;3481727;28;20044;-48
2021/01/03 07:17:44;;;;;;;57.38;17.02;;;;;;;0.74;98.34;100499.66;3484089;28;20081;-47
2021/01/03 07:19:32;;;;;;;;;;;;;;;0.75;98.31;100507.44;3483987;28;20131;-46
2021/01/03 07:21:21;;;;;;;48.20;13.57;;;;;;;0.78;98.67;100504.16;3481806;28;20283;-47
2021/01/03 07:23:11;;;;;;;43.38;13.38;;;;;;;0.80;98.48;100495.81;3482592;28;20049;-47
2021/01/03 07:25:08;;;;;;;56.22;15.85;;;;;;;0.82;98.35;100495.03;3483061;28;20064;-47
2021/01/03 07:27:32;;;;;;;53.17;15.00;;;;;;;0.84;98.77;100488.34;3481351;28;20113;-47
2021/01/03 07:29:17;;;;;;;56.70;16.30;;;;;;;0.82;98.66;100483.16;3457596;28;20538;-47
2021/01/03 07:31:03;;;;;;;59.03;16.45;;;;;;;0.87;98.49;100494.56;3483409;28;20049;-48
2021/01/03 07:32:52;;;;;;;66.13;18.95;;;;;;;0.87;98.56;100497.09;3483015;28;20056;-48
2021/01/03 07:34:35;;;;;;;45.17;15.20;;;;;;;0.88;98.33;100490.34;3482031;28;20110;-47
2021/01/03 07:36:25;;;;;;;53.35;15.40;;;;;;;0.89;98.57;100499.75;3483842;28;20033;-48
2021/01/03 07:38:34;;;;;;;48.58;15.23;;;;;;;0.91;98.52;100496.53;3482221;28;20498;-49
2021/01/03 07:40:18;;;;;;;47.60;14.52;;;;;;;0.94;98.48;100495.84;3434734;28;20047;-49
2021/01/03 07:42:17;;;;;;;45.58;15.65;;;;;;;0.96;98.64;100500.25;3480310;28;20417;-48
2021/01/03 07:44:01;;;;;;;43.75;14.68;;;;;;;0.99;98.58;100489.38;3469961;28;20111;-48
2021/01/03 07:45:45;;;;;;;51.65;15.77;;;;;;;0.99;98.29;100490.25;3479197;28;20049;-48
2021/01/03 07:47:36;;;;;;;49.03;15.02;;;;;;;1.04;98.40;100494.78;3481693;28;20056;-49
2021/01/03 07:49:30;;;;;;;48.67;15.43;;;;;;;1.04;98.47;100489.69;3483130;28;20418;-48
2021/01/03 07:51:32;;;;;;;42.75;14.88;;;;;;;1.06;98.26;100488.97;3483547;28;20049;-47
2021/01/03 07:53:25;;;;;;;48.60;16.05;;;;;;;1.08;98.26;100492.50;3481493;28;20060;-46
2021/01/03 07:55:25;;;;;;;45.88;15.90;;;;;;;1.09;98.60;100491.75;3481529;28;20060;-47
2021/01/03 07:57:08;;;;;;;44.78;15.48;;;;;;;1.13;98.69;100495.38;3469801;28;20068;-48
2021/01/03 07:58:51;;;;;;;45.42;16.25;;;;;;;1.12;98.19;100481.69;3479089;28;20140;-47
2021/01/03 08:00:36;;;;;;;51.05;16.05;;;;;;;1.15;98.50;100491.25;3481620;28;20045;-46
2021/01/03 08:02:23;;;;;;;47.75;15.15;;;;;;;1.15;98.51;100476.78;3483373;28;20430;-47
2021/01/03 08:04:11;;;;;;;36.60;14.13;;;;;;;1.18;98.23;100474.44;3481487;28;20045;-47
2021/01/03 08:06:03;;;;;;;40.17;14.63;;;;;;;1.22;98.42;100479.75;3481506;28;20053;-47
2021/01/03 08:07:44;;;;;;;47.33;14.57;;;;;;;1.25;98.59;100474.81;3484196;28;20053;-48
2021/01/03 08:09:27;;;;;;;36.38;14.07;;;;;;;1.27;98.27;100481.81;3481057;28;20130;-48